Georg Stage — OYKL — position and weather

sailwx.info

Track history (hours):
 
Tides and Currents Weather Stations Pressure Air Temp Water Temp Dewpoint Dewpoint Depression Visibility Wind Speed Wind Dir Waves Ship Positions

Georg Stage (Denmark)

Ship's website: http://www.georgstage.dk

Last reported at 2020-Sep-23 01:55 UTC. Time now 2020-Sep-23 03:31 UTC.
Position N 54°59' E 015°08'.

Length 54 m; draft 4.2 m.

Type: Sailing vessel. MMSI: 219417000.

Date/timePositionNaut miles runAvg speedWind from/ knotsBaromVisibWave heightAir tempDewpointWater temp
2020-Sep-23 01:55N 54°59' E 015°08'24 1.5
2020-Sep-22 10:00N 55°04' E 014°26'1 3.0
2020-Sep-22 09:30N 55°05' E 014°28'2 1.0
2020-Sep-22 08:00N 55°06' E 014°26'1 2.1
2020-Sep-22 07:29N 55°06' E 014°24'1 2.1
2020-Sep-22 07:00N 55°06' E 014°22'4 1.9
2020-Sep-22 05:00N 55°07' E 014°16'2 2.0
2020-Sep-22 04:00N 55°08' E 014°12'1 2.7
2020-Sep-22 03:30N 55°08' E 014°10'21 3.4
2020-Sep-21 21:19N 55°09' E 013°33'3 3.5
2020-Sep-21 20:30N 55°09' E 013°28'10 3.4
2020-Sep-21 17:26N 55°11' E 013°10'8 2.4
2020-Sep-21 14:00N 55°09' E 012°56'9 2.3
2020-Sep-21 10:09N 55°06' E 012°41'2 1.0
2020-Sep-21 08:22N 55°05' E 012°40'11 1.3
2020-Sep-21 00:17N 54°54' E 012°40'1 1.7
2020-Sep-20 23:30N 54°53' E 012°38'11 2.8
2020-Sep-20 19:30N 54°44' E 012°28'3 6.0
2020-Sep-20 19:00N 54°42' E 012°24'7 6.7
2020-Sep-20 18:00N 54°38' E 012°14'4 7.1
2020-Sep-20 17:30N 54°35' E 012°11'3 6.6
2020-Sep-20 17:00N 54°33' E 012°08'3 6.1
2020-Sep-20 16:30N 54°30' E 012°04'3 5.9
2020-Sep-20 16:00N 54°31' E 011°59'2 1.7
2020-Sep-20 14:30N 54°33' E 011°56'9 4.5
2020-Sep-20 12:30N 54°28' E 011°42'3 5.1
2020-Sep-20 12:00N 54°28' E 011°38'2 4.1
2020-Sep-20 11:31N 54°27' E 011°35'4 3.6
2020-Sep-20 10:30N 54°23' E 011°35'3 1.5
2020-Sep-20 08:30N 54°25' E 011°32'2 1.0
2020-Sep-20 07:00N 54°24' E 011°31'2 2.4
2020-Sep-20 06:00N 54°26' E 011°30'1 0.2
2020-Sep-20 00:00N 54°27' E 011°30'3 1.0
2020-Sep-19 20:30N 54°30' E 011°33'4 2.7
2020-Sep-19 19:00N 54°26' E 011°34'1 0.7
2020-Sep-19 17:30N 54°27' E 011°33'2 2.2
2020-Sep-19 16:30N 54°29' E 011°31'3 1.0
2020-Sep-19 14:00N 54°31' E 011°33'2 0.7
2020-Sep-19 11:00N 54°30' E 011°36'1 1.2
2020-Sep-19 10:00N 54°29' E 011°38'3 1.0
2020-Sep-19 07:25N 54°31' E 011°42'0 0.0
2020-Sep-19 06:55N 54°31' E 011°42'0 0.0
2020-Sep-19 04:55N 54°31' E 011°42'0 0.0
2020-Sep-19 04:25N 54°31' E 011°42'0 0.0
2020-Sep-19 02:25N 54°31' E 011°42'0 0.0
2020-Sep-19 01:28N 54°31' E 011°42'0 0.0
2020-Sep-18 23:28N 54°31' E 011°42'0 0.0
2020-Sep-18 22:28N 54°31' E 011°42'0 0.0
2020-Sep-18 19:55N 54°31' E 011°42'0 0.0
2020-Sep-18 18:58N 54°31' E 011°42'2 2.2
2020-Sep-18 18:00N 54°31' E 011°38'14 4.7
2020-Sep-18 15:00N 54°39' E 011°19'4 2.7
2020-Sep-18 13:31N 54°39' E 011°12'17 5.5
2020-Sep-18 10:28N 54°41' E 010°43'13 4.1
2020-Sep-18 07:23N 54°51' E 010°31'0 0.0
2020-Sep-18 06:59N 54°51' E 010°31'0 0.0
2020-Sep-18 04:59N 54°51' E 010°31'0 0.0
2020-Sep-18 02:59N 54°51' E 010°31'0 0.0
2020-Sep-18 01:29N 54°51' E 010°31'0 0.0
2020-Sep-18 00:59N 54°51' E 010°31'0 0.0
2020-Sep-17 19:17N 54°51' E 010°31'0 0.0
2020-Sep-17 16:47N 54°51' E 010°31'0 0.0
2020-Sep-17 15:26N 54°51' E 010°31'0 0.0
2020-Sep-17 14:29N 54°51' E 010°31'0 0.0
2020-Sep-17 12:00N 54°51' E 010°31'0 0.0
2020-Sep-17 08:00N 54°51' E 010°31'0 0.0
2020-Sep-17 07:30N 54°51' E 010°31'0 0.0
2020-Sep-17 07:00N 54°51' E 010°31'0 0.0
2020-Sep-17 06:21N 54°51' E 010°31'0 0.0
2020-Sep-17 03:27N 54°51' E 010°31'0 0.0
2020-Sep-17 02:57N 54°51' E 010°31'0 0.0
2020-Sep-17 01:27N 54°51' E 010°31'0 0.0
2020-Sep-17 00:57N 54°51' E 010°31'0 0.0
2020-Sep-17 00:30N 54°51' E 010°31'0 0.0
2020-Sep-16 23:57N 54°51' E 010°31'0 0.0
2020-Sep-16 20:27N 54°51' E 010°31'0 0.0
2020-Sep-16 18:27N 54°51' E 010°31'0 0.0
2020-Sep-16 18:00N 54°51' E 010°31'0 0.0
2020-Sep-16 16:57N 54°51' E 010°31'0 0.0
2020-Sep-16 16:30N 54°51' E 010°31'0 0.0
2020-Sep-16 11:57N 54°51' E 010°31'0 0.0
2020-Sep-16 06:57N 54°51' E 010°31'0 0.0
2020-Sep-16 05:00N 54°51' E 010°31'0 0.0
2020-Sep-16 04:30N 54°51' E 010°31'0 0.0
2020-Sep-16 04:00N 54°51' E 010°31'0 0.0
2020-Sep-16 03:00N 54°51' E 010°31'0 0.0
2020-Sep-16 00:00N 54°51' E 010°31'0 0.0
2020-Sep-15 23:30N 54°51' E 010°31'0 0.0
2020-Sep-15 22:30N 54°51' E 010°31'0 0.0
2020-Sep-15 20:30N 54°51' E 010°31'0 0.0
2020-Sep-15 13:57N 54°51' E 010°31'0 0.0
2020-Sep-15 13:27N 54°51' E 010°31'0 0.0
2020-Sep-15 11:57N 54°51' E 010°31'0 0.0
2020-Sep-15 09:30N 54°51' E 010°31'3 1.5
2020-Sep-15 07:27N 54°50' E 010°27'0 0.0
2020-Sep-15 05:21N 54°50' E 010°27'0 0.0
2020-Sep-15 03:00N 54°50' E 010°27'0 0.0
2020-Sep-15 02:27N 54°50' E 010°27'0 0.0
2020-Sep-14 20:57N 54°50' E 010°27'0 0.0
2020-Sep-14 19:57N 54°50' E 010°27'2 0.3
2020-Sep-14 14:30N 54°48' E 010°27'5 2.3
2020-Sep-14 12:30N 54°45' E 010°21'4 1.4
2020-Sep-14 09:39N 54°45' E 010°13'3 1.0
2020-Sep-14 06:30N 54°47' E 010°09'5 4.7
2020-Sep-14 05:30N 54°43' E 010°14'0 0.6
2020-Sep-14 05:00N 54°44' E 010°14'1 1.2
2020-Sep-14 03:44N 54°45' E 010°14'1 3.5
2020-Sep-14 03:28N 54°45' E 010°16'0 0.9
2020-Sep-14 02:55N 54°44' E 010°17'2 1.9
2020-Sep-14 02:04N 54°46' E 010°15'0 2.2
2020-Sep-14 01:57N 54°46' E 010°15'3 0.9
2020-Sep-13 22:29N 54°49' E 010°12'2 3.4
2020-Sep-13 21:49N 54°51' E 010°11'5 0.4
2020-Sep-13 08:51N 54°46' E 010°07'3 7.6
2020-Sep-13 08:30N 54°43' E 010°08'2 0.5
2020-Sep-13 05:00N 54°42' E 010°09'3 1.1
2020-Sep-13 02:00N 54°44' E 010°05'  
Track history (hours):
 
Tides and Currents Weather Stations Pressure Air Temp Water Temp Dewpoint Dewpoint Depression Visibility Wind Speed Wind Dir Waves Ship Positions

Georg Stage (Denmark)

Ship's website: http://www.georgstage.dk

Last reported at 2020-Sep-23 01:55 UTC. Time now 2020-Sep-23 03:31 UTC.
Position N 54°59' E 015°08'.

Length 54 m; draft 4.2 m.

Type: Sailing vessel. MMSI: 219417000.

Date/timePositionNaut miles runAvg speedWind from/ knotsBaromVisibWave heightAir tempDewpointWater temp
2020-Sep-23 01:55N 54°59' E 015°08'24 1.5
2020-Sep-22 10:00N 55°04' E 014°26'1 3.0
2020-Sep-22 09:30N 55°05' E 014°28'2 1.0
2020-Sep-22 08:00N 55°06' E 014°26'1 2.1
2020-Sep-22 07:29N 55°06' E 014°24'1 2.1
2020-Sep-22 07:00N 55°06' E 014°22'4 1.9
2020-Sep-22 05:00N 55°07' E 014°16'2 2.0
2020-Sep-22 04:00N 55°08' E 014°12'1 2.7
2020-Sep-22 03:30N 55°08' E 014°10'21 3.4
2020-Sep-21 21:19N 55°09' E 013°33'3 3.5
2020-Sep-21 20:30N 55°09' E 013°28'10 3.4
2020-Sep-21 17:26N 55°11' E 013°10'8 2.4
2020-Sep-21 14:00N 55°09' E 012°56'9 2.3
2020-Sep-21 10:09N 55°06' E 012°41'2 1.0
2020-Sep-21 08:22N 55°05' E 012°40'11 1.3
2020-Sep-21 00:17N 54°54' E 012°40'1 1.7
2020-Sep-20 23:30N 54°53' E 012°38'11 2.8
2020-Sep-20 19:30N 54°44' E 012°28'3 6.0
2020-Sep-20 19:00N 54°42' E 012°24'7 6.7
2020-Sep-20 18:00N 54°38' E 012°14'4 7.1
2020-Sep-20 17:30N 54°35' E 012°11'3 6.6
2020-Sep-20 17:00N 54°33' E 012°08'3 6.1
2020-Sep-20 16:30N 54°30' E 012°04'3 5.9
2020-Sep-20 16:00N 54°31' E 011°59'2 1.7
2020-Sep-20 14:30N 54°33' E 011°56'9 4.5
2020-Sep-20 12:30N 54°28' E 011°42'3 5.1
2020-Sep-20 12:00N 54°28' E 011°38'2 4.1
2020-Sep-20 11:31N 54°27' E 011°35'4 3.6
2020-Sep-20 10:30N 54°23' E 011°35'3 1.5
2020-Sep-20 08:30N 54°25' E 011°32'2 1.0
2020-Sep-20 07:00N 54°24' E 011°31'2 2.4
2020-Sep-20 06:00N 54°26' E 011°30'1 0.2
2020-Sep-20 00:00N 54°27' E 011°30'3 1.0
2020-Sep-19 20:30N 54°30' E 011°33'4 2.7
2020-Sep-19 19:00N 54°26' E 011°34'1 0.7
2020-Sep-19 17:30N 54°27' E 011°33'2 2.2
2020-Sep-19 16:30N 54°29' E 011°31'3 1.0
2020-Sep-19 14:00N 54°31' E 011°33'2 0.7
2020-Sep-19 11:00N 54°30' E 011°36'1 1.2
2020-Sep-19 10:00N 54°29' E 011°38'3 1.0
2020-Sep-19 07:25N 54°31' E 011°42'0 0.0
2020-Sep-19 06:55N 54°31' E 011°42'0 0.0
2020-Sep-19 04:55N 54°31' E 011°42'0 0.0
2020-Sep-19 04:25N 54°31' E 011°42'0 0.0
2020-Sep-19 02:25N 54°31' E 011°42'0 0.0
2020-Sep-19 01:28N 54°31' E 011°42'0 0.0
2020-Sep-18 23:28N 54°31' E 011°42'0 0.0
2020-Sep-18 22:28N 54°31' E 011°42'0 0.0
2020-Sep-18 19:55N 54°31' E 011°42'0 0.0
2020-Sep-18 18:58N 54°31' E 011°42'2 2.2
2020-Sep-18 18:00N 54°31' E 011°38'14 4.7
2020-Sep-18 15:00N 54°39' E 011°19'4 2.7
2020-Sep-18 13:31N 54°39' E 011°12'17 5.5
2020-Sep-18 10:28N 54°41' E 010°43'13 4.1
2020-Sep-18 07:23N 54°51' E 010°31'0 0.0
2020-Sep-18 06:59N 54°51' E 010°31'0 0.0
2020-Sep-18 04:59N 54°51' E 010°31'0 0.0
2020-Sep-18 02:59N 54°51' E 010°31'0 0.0
2020-Sep-18 01:29N 54°51' E 010°31'0 0.0
2020-Sep-18 00:59N 54°51' E 010°31'0 0.0
2020-Sep-17 19:17N 54°51' E 010°31'0 0.0
2020-Sep-17 16:47N 54°51' E 010°31'0 0.0
2020-Sep-17 15:26N 54°51' E 010°31'0 0.0
2020-Sep-17 14:29N 54°51' E 010°31'0 0.0
2020-Sep-17 12:00N 54°51' E 010°31'0 0.0
2020-Sep-17 08:00N 54°51' E 010°31'0 0.0
2020-Sep-17 07:30N 54°51' E 010°31'0 0.0
2020-Sep-17 07:00N 54°51' E 010°31'0 0.0
2020-Sep-17 06:21N 54°51' E 010°31'0 0.0
2020-Sep-17 03:27N 54°51' E 010°31'0 0.0
2020-Sep-17 02:57N 54°51' E 010°31'0 0.0
2020-Sep-17 01:27N 54°51' E 010°31'0 0.0
2020-Sep-17 00:57N 54°51' E 010°31'0 0.0
2020-Sep-17 00:30N 54°51' E 010°31'0 0.0
2020-Sep-16 23:57N 54°51' E 010°31'0 0.0
2020-Sep-16 20:27N 54°51' E 010°31'0 0.0
2020-Sep-16 18:27N 54°51' E 010°31'0 0.0
2020-Sep-16 18:00N 54°51' E 010°31'0 0.0
2020-Sep-16 16:57N 54°51' E 010°31'0 0.0
2020-Sep-16 16:30N 54°51' E 010°31'0 0.0
2020-Sep-16 11:57N 54°51' E 010°31'0 0.0
2020-Sep-16 06:57N 54°51' E 010°31'0 0.0
2020-Sep-16 05:00N 54°51' E 010°31'0 0.0
2020-Sep-16 04:30N 54°51' E 010°31'0 0.0
2020-Sep-16 04:00N 54°51' E 010°31'0 0.0
2020-Sep-16 03:00N 54°51' E 010°31'0 0.0
2020-Sep-16 00:00N 54°51' E 010°31'0 0.0
2020-Sep-15 23:30N 54°51' E 010°31'0 0.0
2020-Sep-15 22:30N 54°51' E 010°31'0 0.0
2020-Sep-15 20:30N 54°51' E 010°31'0 0.0
2020-Sep-15 13:57N 54°51' E 010°31'0 0.0
2020-Sep-15 13:27N 54°51' E 010°31'0 0.0
2020-Sep-15 11:57N 54°51' E 010°31'0 0.0
2020-Sep-15 09:30N 54°51' E 010°31'3 1.5
2020-Sep-15 07:27N 54°50' E 010°27'0 0.0
2020-Sep-15 05:21N 54°50' E 010°27'0 0.0
2020-Sep-15 03:00N 54°50' E 010°27'0 0.0
2020-Sep-15 02:27N 54°50' E 010°27'0 0.0
2020-Sep-14 20:57N 54°50' E 010°27'0 0.0
2020-Sep-14 19:57N 54°50' E 010°27'2 0.3
2020-Sep-14 14:30N 54°48' E 010°27'5 2.3
2020-Sep-14 12:30N 54°45' E 010°21'4 1.4
2020-Sep-14 09:39N 54°45' E 010°13'3 1.0
2020-Sep-14 06:30N 54°47' E 010°09'5 4.7
2020-Sep-14 05:30N 54°43' E 010°14'0 0.6
2020-Sep-14 05:00N 54°44' E 010°14'1 1.2
2020-Sep-14 03:44N 54°45' E 010°14'1 3.5
2020-Sep-14 03:28N 54°45' E 010°16'0 0.9
2020-Sep-14 02:55N 54°44' E 010°17'2 1.9
2020-Sep-14 02:04N 54°46' E 010°15'0 2.2
2020-Sep-14 01:57N 54°46' E 010°15'3 0.9
2020-Sep-13 22:29N 54°49' E 010°12'2 3.4
2020-Sep-13 21:49N 54°51' E 010°11'5 0.4
2020-Sep-13 08:51N 54°46' E 010°07'3 7.6
2020-Sep-13 08:30N 54°43' E 010°08'2 0.5
2020-Sep-13 05:00N 54°42' E 010°09'3 1.1
2020-Sep-13 02:00N 54°44' E 010°05'  

Dump ship's entire track history